OSL weather

Oslo Gardermoen Airport
Oslo, Akershus, Norway

Public forecast

Using degrees Celsius for public forecast. Weather courtesy of forecast.io.

METAR (pilot weather report)

Retrieved 2019/03/20 03:20 UTC (12 minutes ago):

ENGM 200320Z 22009KT CAVOK 01/M02 Q1013

TAF (pilot weather forecast)

Forecast is more than 12 hours old.

Retrieved 2019/03/19 00:58 UTC (1 day ago):

TAF ENGM 192300Z 2000/2024 21007KT CAVOK PROB30 2002/2006 BKN008